La Habana, Cuba

6:12 PM CDT en Marzo 28, 2015 (GMT -0400)
Jose Marti International | | Change Station
CLOSE
Current Station
Aeropuerto
Location: Havana,
Altura: 246 ft
Estaciones meteorológicas cercanas

Alt 246 ft 22.99 °N, 82.41 °W | Updated 17 minutes ago

Scattered Clouds
Nubes dispersas
72 ° F
Sensación térmica 72 ° F
N
17
Viento Variable Viento desde NE

Hoy
Alta -- | Baja -- ° F
--% Posibilidad de precipitaciones
Ayer
Alta -- | Baja -- ° F
Precip. -- pul
7:26 AM 7:43 PM
Gibosa creciente, 66% visible
Presión 30.12 pul
Visibilidad 5.6 Millas
Nubes Nubes dispersas 3000 ft
Punto de rocío 54 ° F
Humedad 53%
Precipitaciones 0.00 pul
Espesor de la nieve No disponible.
UV 2 de una escala de 12
Polen No disponible.
Calidad del aire No disponible.
Flu Activity No disponible.
METAR MUHA 282155Z 04015KT 9000 SCT030 22/12 Q1020

More Conditions Fewer Conditions

Presión 30.12 pul
Visibilidad 5.6 Millas
Nubes Nubes dispersas 3000 ft
Punto de rocío 54 ° F
Humedad 53%
Precipitaciones 0.00 pul
Espesor de la nieve No disponible.
UV 2 de una escala de 12
Polen No disponible.
Calidad del aire No disponible.
Flu Activity No disponible.
METAR MUHA 282155Z 04015KT 9000 SCT030 22/12 Q1020

More Conditions Fewer Conditions

10-Day Weather Forecast

Almanac

Astronomía

Mar. 28, 2015 Salida Puesta
Hora real
Crepúsculo civil
Crepúsculo náutico
Crepúsculo astronómico
Luna
Horas de luz
Horas de luz
Tomorrow will be .
, % of the Moon is Illuminated

Extremos de hoy

Máximos del país Bajas del país

Community

WunderPhotos

Upload Photos

1,809,099 ¡fotos cargadas!

WunderBlogs® & News

Nearby

Calidad del aire

  Calidad del aire Índice AQ Contaminante
Not available.

Grosos de nieve

Estación Profundido Altura

Actividad de terremotos

Ciudad Distance Mag. Tiempo y dato
Magnitud mínima muestra es 2,5.

Temperaturas de aguas costeras

Lugar Temperatura

Stations

Estaciones meteorológicas cercanas

Ubicación de la estación Temp. Vientos helados Punto de rocío Humedad Viento Precip. Alt Actualizado Tipo